createdAt,value
2023-04-15T00:01:25.047Z,0.73
2023-04-15T00:04:10.941Z,1.10
2023-04-15T00:06:56.803Z,0.75
2023-04-15T00:09:42.592Z,1.05
2023-04-15T00:12:28.535Z,1.50
2023-04-15T00:15:14.915Z,1.15
2023-04-15T00:18:01.787Z,0.63
2023-04-15T00:20:47.266Z,0.60
2023-04-15T00:23:32.733Z,1.20
2023-04-15T00:26:19.011Z,0.70
2023-04-15T00:29:06.358Z,0.95
2023-04-15T00:31:51.959Z,1.08
2023-04-15T00:34:37.424Z,2.03
2023-04-15T00:37:23.276Z,0.70
2023-04-15T00:40:13.252Z,0.30
2023-04-15T00:42:58.740Z,0.77
2023-04-15T00:45:44.407Z,1.00
2023-04-15T00:48:31.021Z,0.55
2023-04-15T00:51:17.054Z,0.38
2023-04-15T00:54:04.277Z,1.25
2023-04-15T00:56:49.816Z,0.50
2023-04-15T00:59:36.406Z,1.13
2023-04-15T01:02:22.793Z,0.77
2023-04-15T01:05:08.860Z,0.68
2023-04-15T01:07:55.693Z,0.90
2023-04-15T01:10:41.911Z,1.15
2023-04-15T01:13:27.566Z,0.90
2023-04-15T01:16:13.973Z,0.60
2023-04-15T01:19:00.227Z,0.60
2023-04-15T01:21:46.378Z,1.23
2023-04-15T01:24:33.715Z,1.33
2023-04-15T01:27:20.058Z,1.52
2023-04-15T01:30:07.887Z,1.90
2023-04-15T01:32:54.162Z,0.80
2023-04-15T01:35:40.435Z,0.75
2023-04-15T01:38:27.166Z,0.88
2023-04-15T01:41:13.959Z,0.73
2023-04-15T01:43:59.937Z,0.80
2023-04-15T01:46:45.944Z,0.95
2023-04-15T01:49:32.140Z,1.55
2023-04-15T01:52:19.182Z,1.27
2023-04-15T01:55:05.712Z,1.48
2023-04-15T01:57:51.892Z,2.85
2023-04-15T02:00:37.734Z,2.65
2023-04-15T02:03:25.180Z,0.93
2023-04-15T02:06:11.674Z,1.83
2023-04-15T02:08:58.447Z,1.33
2023-04-15T02:11:45.344Z,2.10
2023-04-15T02:14:31.105Z,3.95
2023-04-15T02:17:17.060Z,5.85
2023-04-15T02:20:08.068Z,6.82
2023-04-15T02:22:53.894Z,9.60
2023-04-15T02:25:39.902Z,10.70
2023-04-15T02:28:26.770Z,11.15
2023-04-15T02:31:12.424Z,3.47
2023-04-15T02:33:57.780Z,4.60
2023-04-15T02:36:43.219Z,4.68
2023-04-15T02:39:28.658Z,2.53
2023-04-15T02:42:14.072Z,2.25
2023-04-15T02:44:59.869Z,2.83
2023-04-15T02:47:50.260Z,4.45
2023-04-15T02:50:38.827Z,4.70
2023-04-15T02:53:25.405Z,8.65
2023-04-15T02:56:11.355Z,11.13
2023-04-15T02:58:57.844Z,11.60
2023-04-15T03:01:43.746Z,13.50
2023-04-15T03:04:30.265Z,12.80
2023-04-15T03:07:17.573Z,12.95
2023-04-15T03:10:03.412Z,11.35
2023-04-15T03:12:49.268Z,9.82
2023-04-15T03:15:40.352Z,8.65
2023-04-15T03:18:25.951Z,4.95
2023-04-15T03:21:11.610Z,5.00
2023-04-15T03:23:58.222Z,5.32
2023-04-15T03:26:44.307Z,5.70
2023-04-15T03:29:34.033Z,8.30
2023-04-15T03:32:19.699Z,5.15
2023-04-15T03:35:05.928Z,5.05
2023-04-15T03:37:51.767Z,5.03
2023-04-15T03:40:38.678Z,4.95
2023-04-15T03:43:24.464Z,4.95
2023-04-15T03:46:10.132Z,5.82
2023-04-15T03:48:55.614Z,7.72
2023-04-15T03:51:41.038Z,7.38
2023-04-15T03:54:26.583Z,5.22
2023-04-15T03:57:12.380Z,4.47
2023-04-15T03:59:58.477Z,3.17
2023-04-15T04:02:45.578Z,2.65
2023-04-15T04:05:31.829Z,3.80
2023-04-15T04:08:18.989Z,2.50
2023-04-15T04:11:04.826Z,2.63
2023-04-15T04:13:50.456Z,3.25
2023-04-15T04:16:36.167Z,5.70
2023-04-15T04:19:21.993Z,2.47
2023-04-15T04:22:07.721Z,1.75
2023-04-15T04:24:53.551Z,4.78
2023-04-15T04:27:39.110Z,3.22
2023-04-15T04:30:24.687Z,1.80
2023-04-15T04:33:10.305Z,1.45
2023-04-15T04:35:55.973Z,2.10
2023-04-15T04:38:41.433Z,1.75
2023-04-15T04:41:27.426Z,2.03
2023-04-15T04:44:12.878Z,2.75
2023-04-15T04:46:58.521Z,2.58
2023-04-15T04:49:44.608Z,3.17
2023-04-15T04:52:30.136Z,2.40
2023-04-15T04:55:16.116Z,2.28
2023-04-15T04:58:01.857Z,2.53
2023-04-15T05:00:47.631Z,5.07
2023-04-15T05:03:34.067Z,5.78
2023-04-15T05:06:19.913Z,5.88
2023-04-15T05:09:05.496Z,6.05
2023-04-15T05:11:51.042Z,5.65
2023-04-15T05:14:36.572Z,5.97
2023-04-15T05:17:22.543Z,5.57
2023-04-15T05:20:09.094Z,3.65
2023-04-15T05:22:54.662Z,3.40
2023-04-15T05:25:41.009Z,4.60
2023-04-15T05:28:26.840Z,4.75
2023-04-15T05:31:12.889Z,4.57
2023-04-15T05:33:58.871Z,6.18
2023-04-15T05:36:44.321Z,5.25
2023-04-15T05:39:31.988Z,6.00
2023-04-15T05:42:17.635Z,6.32
2023-04-15T05:45:05.038Z,6.43
2023-04-15T05:47:53.660Z,7.13
2023-04-15T05:50:41.926Z,7.75
2023-04-15T05:53:27.430Z,6.68
2023-04-15T05:56:13.014Z,6.88
2023-04-15T05:58:58.491Z,7.72
2023-04-15T06:01:44.636Z,5.78
2023-04-15T06:04:30.596Z,6.72
2023-04-15T06:07:16.460Z,5.15
2023-04-15T06:10:03.131Z,4.75
2023-04-15T06:12:48.993Z,4.60
2023-04-15T06:15:34.410Z,3.63
2023-04-15T06:18:20.077Z,4.75
2023-04-15T06:21:05.785Z,3.33
2023-04-15T06:23:51.155Z,3.88
2023-04-15T06:26:36.657Z,2.90
2023-04-15T06:29:22.152Z,2.42
2023-04-15T06:32:07.704Z,2.60
2023-04-15T06:34:53.336Z,3.00
2023-04-15T06:37:38.672Z,1.38
2023-04-15T06:40:24.395Z,1.33
2023-04-15T06:43:10.275Z,2.10
2023-04-15T06:45:56.128Z,2.90
2023-04-15T06:48:41.959Z,3.78
2023-04-15T06:51:27.453Z,1.35
2023-04-15T06:54:12.954Z,1.05
2023-04-15T06:56:58.336Z,1.33
2023-04-15T06:59:44.005Z,0.80
2023-04-15T07:02:30.001Z,1.20
2023-04-15T07:05:16.216Z,1.27
2023-04-15T07:08:01.987Z,2.63
2023-04-15T07:10:47.585Z,2.38
2023-04-15T07:13:34.360Z,2.05
2023-04-15T07:16:20.613Z,1.42
2023-04-15T07:19:06.849Z,2.22
2023-04-15T07:21:52.488Z,1.77
2023-04-15T07:24:37.897Z,1.80
2023-04-15T07:27:23.429Z,0.65
2023-04-15T07:30:10.090Z,0.75
2023-04-15T07:32:55.669Z,0.50
2023-04-15T07:35:41.456Z,1.92
2023-04-15T07:38:26.987Z,1.50
2023-04-15T07:41:12.513Z,0.90
2023-04-15T07:43:58.345Z,0.70
2023-04-15T07:46:44.093Z,1.95
2023-04-15T07:49:30.092Z,0.55
2023-04-15T07:52:16.070Z,0.60
2023-04-15T07:55:01.767Z,0.40
2023-04-15T07:57:48.382Z,1.15
2023-04-15T08:00:33.999Z,0.63
2023-04-15T08:03:19.509Z,0.63
2023-04-15T08:06:05.434Z,0.50
2023-04-15T08:08:51.498Z,0.10
2023-04-15T08:11:37.534Z,0.65
2023-04-15T08:14:24.371Z,0.73
2023-04-15T08:17:09.867Z,1.23
2023-04-15T08:19:55.679Z,1.08
2023-04-15T08:22:41.983Z,0.57
2023-04-15T08:25:27.773Z,0.40
2023-04-15T08:28:13.364Z,0.45
2023-04-15T08:30:59.343Z,0.43
2023-04-15T08:33:46.147Z,0.60
2023-04-15T08:36:32.153Z,0.73
2023-04-15T08:39:17.846Z,0.30
2023-04-15T08:42:07.225Z,0.30
2023-04-15T08:44:54.654Z,0.32
2023-04-15T08:47:42.476Z,1.33
2023-04-15T08:50:31.603Z,0.38
2023-04-15T08:53:18.162Z,0.13
2023-04-15T08:56:06.986Z,0.40
2023-04-15T08:58:53.374Z,0.52
2023-04-15T09:01:40.482Z,0.82
2023-04-15T09:04:27.451Z,1.40
2023-04-15T09:07:12.943Z,0.28
2023-04-15T09:09:58.631Z,1.15
2023-04-15T09:12:44.135Z,0.50
2023-04-15T09:15:32.399Z,0.52
2023-04-15T09:18:32.843Z,0.98
2023-04-15T09:21:18.717Z,0.82
2023-04-15T09:24:04.544Z,0.65
2023-04-15T09:26:57.510Z,0.60
2023-04-15T09:29:43.473Z,0.30
2023-04-15T09:32:29.403Z,0.45
2023-04-15T09:35:15.556Z,0.82
2023-04-15T09:38:09.964Z,0.50
2023-04-15T09:40:56.558Z,0.80
2023-04-15T09:43:42.422Z,0.20
2023-04-15T09:46:46.484Z,0.30
2023-04-15T09:49:32.378Z,0.43
2023-04-15T09:52:17.855Z,0.45
2023-04-15T09:55:03.799Z,0.77
2023-04-15T09:57:49.729Z,0.82
2023-04-15T10:00:36.851Z,0.82
2023-04-15T10:03:36.261Z,0.30
2023-04-15T10:06:25.590Z,0.17
2023-04-15T10:09:11.807Z,0.55
2023-04-15T10:11:57.756Z,0.47
2023-04-15T10:14:44.205Z,0.50
2023-04-15T10:17:36.375Z,0.57
2023-04-15T10:20:23.186Z,1.10
2023-04-15T10:23:10.998Z,1.17
2023-04-15T10:25:58.321Z,0.35
2023-04-15T10:28:47.805Z,0.50
2023-04-15T10:31:35.208Z,0.40
2023-04-15T10:34:23.553Z,0.30
2023-04-15T10:37:13.050Z,0.40
2023-04-15T10:39:58.771Z,0.70
2023-04-15T10:42:44.220Z,0.63
2023-04-15T10:45:37.502Z,0.32
2023-04-15T10:48:24.064Z,0.40
2023-04-15T10:51:13.392Z,0.90
2023-04-15T10:54:00.152Z,0.85
2023-04-15T10:56:50.548Z,0.50
2023-04-15T10:59:58.269Z,0.52
2023-04-15T11:02:55.951Z,0.40
2023-04-15T11:05:41.998Z,1.40
2023-04-15T11:09:32.565Z,0.80
2023-04-15T11:12:19.404Z,1.10
2023-04-15T11:15:32.755Z,0.40
2023-04-15T11:18:19.320Z,0.40
2023-04-15T11:21:07.269Z,0.70
2023-04-15T11:23:52.848Z,0.20
2023-04-15T11:26:39.533Z,0.82
2023-04-15T11:29:31.953Z,0.70
2023-04-15T11:32:17.773Z,0.68
2023-04-15T11:35:03.815Z,0.50
2023-04-15T11:37:50.318Z,0.50
2023-04-15T11:40:36.949Z,0.90
2023-04-15T11:43:23.299Z,0.40
2023-04-15T11:46:09.047Z,0.40
2023-04-15T11:48:54.823Z,0.68
2023-04-15T11:51:40.613Z,0.52
2023-04-15T11:54:26.413Z,0.77
2023-04-15T11:57:11.907Z,0.47
2023-04-15T11:59:57.513Z,0.50
2023-04-15T12:02:43.682Z,0.80
2023-04-15T12:05:29.376Z,0.50
2023-04-15T12:08:15.082Z,0.47
2023-04-15T12:11:00.552Z,0.50
2023-04-15T12:13:48.643Z,1.50
2023-04-15T12:16:48.308Z,1.05
2023-04-15T12:19:37.137Z,0.40
2023-04-15T12:22:22.678Z,0.68
2023-04-15T12:25:08.717Z,1.10
2023-04-15T12:27:54.073Z,0.73
2023-04-15T12:30:51.856Z,0.63
2023-04-15T12:33:37.871Z,0.90
2023-04-15T12:36:23.746Z,0.80
2023-04-15T12:39:09.776Z,0.43
2023-04-15T12:41:55.565Z,0.68
2023-04-15T12:44:41.207Z,0.90
2023-04-15T12:47:26.725Z,0.70
2023-04-15T12:50:12.433Z,1.05
2023-04-15T12:52:58.418Z,1.00
2023-04-15T12:55:43.909Z,0.80
2023-04-15T12:58:29.571Z,0.70
2023-04-15T13:01:15.126Z,1.27
2023-04-15T13:04:01.257Z,1.25
2023-04-15T13:06:47.022Z,1.38
2023-04-15T13:09:32.680Z,1.40
2023-04-15T13:12:18.545Z,1.13
2023-04-15T13:15:05.766Z,1.05
2023-04-15T13:17:51.799Z,1.25
2023-04-15T13:20:37.589Z,1.80
2023-04-15T13:23:23.132Z,1.48
2023-04-15T13:26:08.570Z,1.27
2023-04-15T13:28:54.063Z,0.80
2023-04-15T13:31:39.816Z,1.23
2023-04-15T13:34:25.548Z,1.85
2023-04-15T13:37:11.030Z,1.55
2023-04-15T13:39:57.387Z,1.50
2023-04-15T13:42:43.274Z,0.93
2023-04-15T13:45:29.224Z,1.10
2023-04-15T13:48:14.863Z,1.40
2023-04-15T13:51:17.822Z,1.23
2023-04-15T13:54:04.341Z,1.30
2023-04-15T13:57:09.125Z,1.40
2023-04-15T13:59:55.058Z,2.00
2023-04-15T14:02:41.693Z,1.70
2023-04-15T14:05:27.534Z,1.65
2023-04-15T14:08:13.366Z,1.30
2023-04-15T14:10:59.296Z,0.80
2023-04-15T14:13:45.225Z,1.42
2023-04-15T14:16:33.435Z,1.02
2023-04-15T14:19:19.219Z,1.02
2023-04-15T14:22:04.743Z,1.17
2023-04-15T14:24:53.178Z,1.38
2023-04-15T14:27:38.887Z,1.75
2023-04-15T14:30:24.395Z,1.65
2023-04-15T14:33:09.946Z,1.55
2023-04-15T14:35:55.922Z,1.10
2023-04-15T14:38:42.122Z,0.88
2023-04-15T14:41:27.915Z,1.10
2023-04-15T14:44:14.700Z,1.00
2023-04-15T14:47:00.472Z,1.00
2023-04-15T14:49:46.195Z,0.98
2023-04-15T14:52:37.883Z,1.13
2023-04-15T14:55:23.608Z,1.30
2023-04-15T14:58:08.990Z,1.23
2023-04-15T15:00:54.853Z,0.98
2023-04-15T15:03:40.997Z,1.05
2023-04-15T15:06:27.210Z,0.85
2023-04-15T15:09:12.751Z,1.35
2023-04-15T15:11:58.238Z,1.48
2023-04-15T15:14:44.704Z,1.20
2023-04-15T15:17:30.900Z,1.83
2023-04-15T15:20:18.694Z,1.80
2023-04-15T15:23:04.359Z,1.70
2023-04-15T15:25:49.841Z,1.85
2023-04-15T15:28:35.452Z,1.70
2023-04-15T15:31:21.692Z,1.80
2023-04-15T15:34:07.286Z,1.35
2023-04-15T15:36:54.805Z,1.02
2023-04-15T15:39:40.794Z,1.90
2023-04-15T15:42:26.917Z,1.15
2023-04-15T15:45:12.451Z,1.92
2023-04-15T15:47:58.628Z,0.80
2023-04-15T15:50:45.497Z,1.10
2023-04-15T15:53:31.483Z,0.95
2023-04-15T15:56:17.018Z,1.10
2023-04-15T15:59:02.742Z,0.70
2023-04-15T16:01:49.777Z,0.55
2023-04-15T16:04:38.612Z,0.45
2023-04-15T16:07:24.546Z,0.57
2023-04-15T16:10:10.497Z,0.82
2023-04-15T16:12:56.296Z,0.85
2023-04-15T16:15:42.401Z,1.10
2023-04-15T16:18:27.952Z,0.52
2023-04-15T16:21:13.580Z,1.50
2023-04-15T16:23:59.055Z,0.80
2023-04-15T16:26:44.898Z,1.25
2023-04-15T16:29:30.846Z,0.65
2023-04-15T16:32:16.606Z,0.85
2023-04-15T16:35:03.321Z,0.68
2023-04-15T16:37:48.727Z,0.60
2023-04-15T16:40:34.506Z,1.00
2023-04-15T16:43:19.975Z,0.80
2023-04-15T16:46:05.613Z,0.63
2023-04-15T16:48:51.513Z,0.70
2023-04-15T16:51:37.229Z,1.15
2023-04-15T16:54:22.761Z,1.55
2023-04-15T16:57:08.602Z,0.50
2023-04-15T16:59:54.067Z,0.98
2023-04-15T17:02:39.708Z,0.85
2023-04-15T17:05:28.707Z,0.47
2023-04-15T17:08:14.328Z,0.63
2023-04-15T17:11:01.025Z,0.80
2023-04-15T17:13:47.099Z,0.60
2023-04-15T17:16:33.080Z,0.68
2023-04-15T17:19:18.590Z,0.85
2023-04-15T17:22:04.318Z,1.67
2023-04-15T17:24:49.892Z,0.60
2023-04-15T17:27:35.952Z,0.88
2023-04-15T17:30:23.269Z,1.15
2023-04-15T17:33:56.054Z,0.77
2023-04-15T17:36:14.892Z,1.10
2023-04-15T17:39:00.849Z,0.90
2023-04-15T17:41:46.348Z,1.58
2023-04-15T17:44:32.362Z,1.42
2023-04-15T17:47:18.360Z,1.70
2023-04-15T17:50:04.750Z,2.10
2023-04-15T17:52:50.944Z,3.38
2023-04-15T17:55:36.624Z,3.67
2023-04-15T17:58:22.181Z,3.42
2023-04-15T18:01:07.793Z,2.42
2023-04-15T18:03:53.633Z,1.85
2023-04-15T18:06:40.060Z,7.35
2023-04-15T18:09:26.770Z,8.48
2023-04-15T18:12:12.489Z,2.38
2023-04-15T18:14:58.280Z,2.20
2023-04-15T18:17:44.428Z,1.45
2023-04-15T18:20:30.645Z,1.92
2023-04-15T18:23:16.497Z,2.40
2023-04-15T18:26:02.218Z,1.30
2023-04-15T18:28:47.918Z,1.52
2023-04-15T18:31:33.532Z,1.67
2023-04-15T18:34:18.903Z,1.45
2023-04-15T18:37:04.917Z,3.17
2023-04-15T18:39:51.306Z,2.10
2023-04-15T18:42:36.591Z,3.88
2023-04-15T18:45:22.113Z,2.15
2023-04-15T18:48:07.554Z,1.75
2023-04-15T18:50:53.757Z,2.17
2023-04-15T18:53:39.468Z,2.97
2023-04-15T18:56:25.171Z,3.17
2023-04-15T18:59:28.792Z,3.90
2023-04-15T19:02:16.396Z,6.05
2023-04-15T19:05:03.585Z,6.93
2023-04-15T19:07:50.657Z,4.68
2023-04-15T19:10:36.425Z,3.13
2023-04-15T19:13:22.081Z,3.08
2023-04-15T19:16:07.922Z,3.70
2023-04-15T19:18:53.788Z,5.18
2023-04-15T19:21:39.975Z,6.40
2023-04-15T19:24:25.408Z,4.65
2023-04-15T19:27:11.059Z,7.38
2023-04-15T19:29:56.597Z,5.03
2023-04-15T19:32:41.999Z,5.32
2023-04-15T19:35:28.041Z,5.13
2023-04-15T19:38:13.463Z,3.70
2023-04-15T19:40:59.109Z,5.25
2023-04-15T19:43:45.025Z,4.13
2023-04-15T19:46:30.860Z,6.25
2023-04-15T19:49:17.374Z,5.55
2023-04-15T19:52:04.148Z,4.82
2023-04-15T19:54:49.839Z,4.85
2023-04-15T19:57:35.457Z,6.55
2023-04-15T20:00:21.321Z,5.05
2023-04-15T20:03:07.480Z,5.22
2023-04-15T20:05:53.453Z,3.58
2023-04-15T20:08:39.106Z,4.63
2023-04-15T20:12:46.123Z,6.97
2023-04-15T20:14:34.351Z,6.75
2023-04-15T20:17:19.996Z,6.57
2023-04-15T20:20:07.173Z,8.73
2023-04-15T20:22:52.564Z,11.00
2023-04-15T20:25:38.130Z,12.18
2023-04-15T20:28:25.562Z,13.75
2023-04-15T20:31:10.988Z,13.23
2023-04-15T20:33:57.276Z,23.70
2023-04-15T20:36:43.025Z,31.00
2023-04-15T20:39:29.562Z,32.67
2023-04-15T20:42:18.160Z,31.05
2023-04-15T20:45:06.312Z,29.10
2023-04-15T20:47:54.119Z,28.20
2023-04-15T20:50:39.831Z,31.93
2023-04-15T20:53:25.426Z,27.25
2023-04-15T20:56:11.216Z,28.08
2023-04-15T20:58:57.245Z,23.85
2023-04-15T21:01:42.881Z,23.40
2023-04-15T21:04:28.603Z,20.80
2023-04-15T21:07:14.407Z,18.08
2023-04-15T21:10:00.045Z,13.75
2023-04-15T21:12:46.247Z,12.98
2023-04-15T21:15:31.703Z,9.75
2023-04-15T21:18:17.353Z,9.77
2023-04-15T21:21:02.967Z,12.38
2023-04-15T21:23:48.383Z,11.88
2023-04-15T21:26:35.422Z,18.23
2023-04-15T21:29:21.190Z,22.00
2023-04-15T21:32:06.712Z,30.85
2023-04-15T21:34:52.565Z,19.75
2023-04-15T21:37:38.208Z,8.00
2023-04-15T21:40:23.679Z,4.43
2023-04-15T21:43:10.041Z,4.75
2023-04-15T21:46:23.174Z,4.25
2023-04-15T21:49:01.208Z,4.82
2023-04-15T21:51:50.915Z,4.10
2023-04-15T21:54:37.415Z,5.63
2023-04-15T21:57:23.223Z,8.38
2023-04-15T22:00:10.340Z,9.07
2023-04-15T22:02:56.086Z,8.02
2023-04-15T22:05:45.843Z,6.30
2023-04-15T22:08:41.212Z,3.92
2023-04-15T22:11:35.204Z,4.60
2023-04-15T22:14:20.817Z,5.82
2023-04-15T22:17:06.444Z,5.15
2023-04-15T22:19:51.859Z,5.35
2023-04-15T22:22:44.030Z,4.95
2023-04-15T22:25:30.982Z,4.95
2023-04-15T22:28:16.709Z,5.07
2023-04-15T22:31:02.405Z,3.10
2023-04-15T22:33:48.206Z,5.75
2023-04-15T22:36:33.786Z,6.90
2023-04-15T22:39:20.380Z,6.80
2023-04-15T22:42:05.852Z,5.50
2023-04-15T22:44:51.498Z,5.57
2023-04-15T22:47:37.427Z,6.18
2023-04-15T22:50:23.391Z,4.65
2023-04-15T22:53:08.765Z,5.95
2023-04-15T22:55:54.729Z,8.00
2023-04-15T22:58:40.439Z,5.78
2023-04-15T23:01:26.297Z,6.53
2023-04-15T23:04:26.434Z,7.28
2023-04-15T23:07:12.642Z,7.63
2023-04-15T23:10:00.549Z,8.98
2023-04-15T23:12:46.618Z,8.05
2023-04-15T23:15:32.295Z,7.05
2023-04-15T23:18:18.092Z,4.22
2023-04-15T23:21:04.802Z,5.43
2023-04-15T23:23:50.606Z,4.88
2023-04-15T23:26:36.239Z,2.63
2023-04-15T23:29:21.638Z,2.03
2023-04-15T23:32:07.348Z,1.67
2023-04-15T23:34:53.560Z,1.75
2023-04-15T23:37:39.006Z,1.00
2023-04-15T23:40:24.505Z,1.80
2023-04-15T23:43:09.889Z,0.95
2023-04-15T23:45:55.511Z,1.08
2023-04-15T23:48:41.337Z,1.48
2023-04-15T23:51:26.819Z,2.08
2023-04-15T23:54:12.238Z,1.45
2023-04-15T23:56:57.777Z,1.20
2023-04-15T23:59:45.327Z,1.63
